createdAt,value
2022-11-20T00:01:40.536Z,100.00
2022-11-20T00:04:12.108Z,100.00
2022-11-20T00:06:39.947Z,100.00
2022-11-20T00:09:10.590Z,100.00
2022-11-20T00:11:40.011Z,100.00
2022-11-20T00:14:07.845Z,100.00
2022-11-20T00:16:36.512Z,100.00
2022-11-20T00:19:05.199Z,100.00
2022-11-20T00:21:33.865Z,100.00
2022-11-20T00:24:02.556Z,100.00
2022-11-20T00:26:31.430Z,100.00
2022-11-20T00:29:02.706Z,100.00
2022-11-20T00:31:34.142Z,100.00
2022-11-20T00:34:01.925Z,100.00
2022-11-20T00:36:33.735Z,100.00
2022-11-20T00:39:02.623Z,100.00
2022-11-20T00:41:31.712Z,100.00
2022-11-20T00:44:00.404Z,100.00
2022-11-20T00:46:30.244Z,100.00
2022-11-20T00:48:59.036Z,100.00
2022-11-20T00:51:29.519Z,100.00
2022-11-20T00:54:01.240Z,100.00
2022-11-20T00:56:30.290Z,100.00
2022-11-20T00:59:02.432Z,100.00
2022-11-20T01:01:31.684Z,100.00
2022-11-20T01:04:01.991Z,100.00
2022-11-20T01:06:37.536Z,100.00
2022-11-20T01:09:13.616Z,100.00
2022-11-20T01:11:45.715Z,100.00
2022-11-20T01:14:20.839Z,100.00
2022-11-20T01:16:52.778Z,100.00
2022-11-20T01:19:24.789Z,100.00
2022-11-20T01:21:55.333Z,100.00
2022-11-20T01:24:24.947Z,100.00
2022-11-20T01:26:54.132Z,100.00
2022-11-20T01:29:26.403Z,100.00
2022-11-20T01:31:55.132Z,100.00
2022-11-20T01:34:24.870Z,100.00
2022-11-20T01:36:55.334Z,100.00
2022-11-20T01:39:27.282Z,100.00
2022-11-20T01:42:15.955Z,100.00
2022-11-20T01:45:00.194Z,100.00
2022-11-20T01:47:45.531Z,100.00
2022-11-20T01:50:28.096Z,100.00
2022-11-20T01:53:09.698Z,100.00
2022-11-20T01:55:53.811Z,100.00
2022-11-20T01:58:33.638Z,100.00
2022-11-20T02:01:04.696Z,100.00
2022-11-20T02:03:34.416Z,100.00
2022-11-20T02:06:30.695Z,100.00
2022-11-20T02:09:00.186Z,100.00
2022-11-20T02:11:34.479Z,100.00
2022-11-20T02:14:03.138Z,100.00
2022-11-20T02:16:45.165Z,100.00
2022-11-20T02:19:32.411Z,100.00
2022-11-20T02:22:20.731Z,100.00
2022-11-20T02:24:52.531Z,100.00
2022-11-20T02:27:23.406Z,100.00
2022-11-20T02:30:08.719Z,100.00
2022-11-20T02:32:39.553Z,100.00
2022-11-20T02:35:29.169Z,100.00
2022-11-20T02:38:02.561Z,100.00
2022-11-20T02:40:31.328Z,100.00
2022-11-20T02:43:00.869Z,100.00
2022-11-20T02:45:29.533Z,100.00
2022-11-20T02:47:59.081Z,100.00
2022-11-20T02:50:28.570Z,100.00
2022-11-20T02:52:57.217Z,100.00
2022-11-20T02:55:25.927Z,100.00
2022-11-20T02:57:53.668Z,100.00
2022-11-20T03:00:22.441Z,100.00
2022-11-20T03:02:51.855Z,100.00
2022-11-20T03:05:21.296Z,100.00
2022-11-20T03:07:50.796Z,100.00
2022-11-20T03:10:19.462Z,100.00
2022-11-20T03:12:47.268Z,100.00
2022-11-20T03:15:14.999Z,100.00
2022-11-20T03:17:43.676Z,100.00
2022-11-20T03:20:13.652Z,100.00
2022-11-20T03:22:42.367Z,100.00
2022-11-20T03:25:11.039Z,100.00
2022-11-20T03:27:40.506Z,100.00
2022-11-20T03:30:10.422Z,100.00
2022-11-20T03:32:39.059Z,100.00
2022-11-20T03:35:09.352Z,100.00
2022-11-20T03:37:38.037Z,100.00
2022-11-20T03:40:07.970Z,100.00
2022-11-20T03:42:48.525Z,100.00
2022-11-20T03:45:19.937Z,100.00
2022-11-20T03:47:49.514Z,100.00
2022-11-20T03:50:18.273Z,100.00
2022-11-20T03:52:46.021Z,100.00
2022-11-20T03:55:13.769Z,100.00
2022-11-20T03:57:43.262Z,100.00
2022-11-20T04:00:14.183Z,100.00
2022-11-20T04:02:42.803Z,100.00
2022-11-20T04:05:10.603Z,100.00
2022-11-20T04:07:39.300Z,100.00
2022-11-20T04:10:09.193Z,100.00
2022-11-20T04:12:37.812Z,100.00
2022-11-20T04:15:06.860Z,100.00
2022-11-20T04:17:34.624Z,100.00
2022-11-20T04:20:04.979Z,100.00
2022-11-20T04:22:32.770Z,100.00
2022-11-20T04:25:02.205Z,100.00
2022-11-20T04:27:32.791Z,100.00
2022-11-20T04:30:01.504Z,100.00
2022-11-20T04:32:30.970Z,100.00
2022-11-20T04:35:00.470Z,100.00
2022-11-20T04:37:29.123Z,100.00
2022-11-20T04:39:57.806Z,100.00
2022-11-20T04:42:29.387Z,100.00
2022-11-20T04:44:59.284Z,100.00
2022-11-20T04:47:28.032Z,100.00
2022-11-20T04:49:55.909Z,100.00
2022-11-20T04:52:24.669Z,100.00
2022-11-20T04:54:54.484Z,100.00
2022-11-20T04:57:23.920Z,100.00
2022-11-20T04:59:52.660Z,100.00
2022-11-20T05:02:22.395Z,100.00
2022-11-20T05:04:50.357Z,100.00
2022-11-20T05:07:18.162Z,100.00
2022-11-20T05:09:46.804Z,100.00
2022-11-20T05:12:15.447Z,100.00
2022-11-20T05:14:44.913Z,100.00
2022-11-20T05:17:13.935Z,100.00
2022-11-20T05:19:42.591Z,100.00
2022-11-20T05:22:12.033Z,100.00
2022-11-20T05:24:40.728Z,100.00
2022-11-20T05:27:10.243Z,100.00
2022-11-20T05:29:39.736Z,100.00
2022-11-20T05:32:10.859Z,100.00
2022-11-20T05:34:38.560Z,100.00
2022-11-20T05:37:07.961Z,100.00
2022-11-20T05:39:37.413Z,100.00
2022-11-20T05:42:25.495Z,100.00
2022-11-20T05:44:54.180Z,100.00
2022-11-20T05:47:22.829Z,100.00
2022-11-20T05:49:51.520Z,100.00
2022-11-20T05:52:19.427Z,100.00
2022-11-20T05:54:48.092Z,100.00
2022-11-20T05:57:17.481Z,100.00
2022-11-20T05:59:45.267Z,100.00
2022-11-20T06:02:13.222Z,100.00
2022-11-20T06:04:43.016Z,100.00
2022-11-20T06:07:12.688Z,100.00
2022-11-20T06:09:41.762Z,100.00
2022-11-20T06:12:14.111Z,100.00
2022-11-20T06:14:42.870Z,100.00
2022-11-20T06:17:12.374Z,100.00
2022-11-20T06:19:41.868Z,100.00
2022-11-20T06:22:11.309Z,100.00
2022-11-20T06:24:40.777Z,100.00
2022-11-20T06:27:09.432Z,100.00
2022-11-20T06:29:38.070Z,100.00
2022-11-20T06:32:07.495Z,100.00
2022-11-20T06:34:36.938Z,100.00
2022-11-20T06:37:06.476Z,100.00
2022-11-20T06:39:35.955Z,100.00
2022-11-20T06:42:04.689Z,100.00
2022-11-20T06:44:33.922Z,100.00
2022-11-20T06:47:02.621Z,100.00
2022-11-20T06:49:32.193Z,100.00
2022-11-20T06:51:59.886Z,100.00
2022-11-20T06:54:28.534Z,100.00
2022-11-20T06:56:57.983Z,100.00
2022-11-20T06:59:27.446Z,100.00
2022-11-20T07:01:57.186Z,100.00
2022-11-20T07:04:26.660Z,100.00
2022-11-20T07:06:56.111Z,100.00
2022-11-20T07:09:25.717Z,100.00
2022-11-20T07:11:55.272Z,100.00
2022-11-20T07:14:24.705Z,100.00
2022-11-20T07:16:53.758Z,100.00
2022-11-20T07:19:22.606Z,100.00
2022-11-20T07:21:52.202Z,100.00
2022-11-20T07:24:21.648Z,100.00
2022-11-20T07:26:51.073Z,100.00
2022-11-20T07:29:20.067Z,100.00
2022-11-20T07:31:50.136Z,100.00
2022-11-20T07:34:19.547Z,100.00
2022-11-20T07:36:49.084Z,100.00
2022-11-20T07:39:18.635Z,100.00
2022-11-20T07:41:48.220Z,100.00
2022-11-20T07:44:17.616Z,100.00
2022-11-20T07:46:47.204Z,100.00
2022-11-20T07:49:16.674Z,100.00
2022-11-20T07:51:47.939Z,100.00
2022-11-20T07:54:22.392Z,100.00
2022-11-20T07:56:51.968Z,100.00
2022-11-20T07:59:21.722Z,100.00
2022-11-20T08:01:51.442Z,100.00
2022-11-20T08:04:20.947Z,100.00
2022-11-20T08:06:50.492Z,100.00
2022-11-20T08:09:20.276Z,100.00
2022-11-20T08:12:07.749Z,100.00
2022-11-20T08:14:37.265Z,100.00
2022-11-20T08:17:06.723Z,100.00
2022-11-20T08:19:35.377Z,100.00
2022-11-20T08:22:04.055Z,100.00
2022-11-20T08:24:33.616Z,99.72
2022-11-20T08:27:03.222Z,99.67
2022-11-20T08:29:32.729Z,100.00
2022-11-20T08:32:02.200Z,99.67
2022-11-20T08:34:31.618Z,98.96
2022-11-20T08:37:03.274Z,98.44
2022-11-20T08:39:32.747Z,98.48
2022-11-20T08:42:01.449Z,98.43
2022-11-20T08:44:30.968Z,98.71
2022-11-20T08:47:00.393Z,98.13
2022-11-20T08:49:29.018Z,97.94
2022-11-20T08:51:59.003Z,98.09
2022-11-20T08:54:28.445Z,97.49
2022-11-20T08:56:57.950Z,97.43
2022-11-20T08:59:50.798Z,97.58
2022-11-20T09:02:16.900Z,97.93
2022-11-20T09:04:46.355Z,97.61
2022-11-20T09:07:15.867Z,97.91
2022-11-20T09:09:46.428Z,97.75
2022-11-20T09:12:16.062Z,98.03
2022-11-20T09:14:45.472Z,97.51
2022-11-20T09:17:16.061Z,96.89
2022-11-20T09:19:45.933Z,95.95
2022-11-20T09:22:14.788Z,95.63
2022-11-20T09:24:44.208Z,96.55
2022-11-20T09:27:13.663Z,95.37
2022-11-20T09:29:43.062Z,95.43
2022-11-20T09:32:12.443Z,95.56
2022-11-20T09:34:41.870Z,95.90
2022-11-20T09:37:11.326Z,94.69
2022-11-20T09:39:40.822Z,92.99
2022-11-20T09:42:41.778Z,93.71
2022-11-20T09:45:45.348Z,93.27
2022-11-20T09:48:52.097Z,93.95
2022-11-20T09:51:52.809Z,93.98
2022-11-20T09:54:32.854Z,93.35
2022-11-20T09:57:20.298Z,93.43
2022-11-20T09:59:57.807Z,92.83
2022-11-20T10:02:50.494Z,94.65
2022-11-20T10:05:51.444Z,93.89
2022-11-20T10:08:37.128Z,93.66
2022-11-20T10:11:34.926Z,95.65
2022-11-20T10:14:26.517Z,93.63
2022-11-20T10:17:56.602Z,93.44
2022-11-20T10:21:05.134Z,93.75
2022-11-20T10:24:04.188Z,93.74
2022-11-20T10:27:15.103Z,94.17
2022-11-20T10:30:17.934Z,93.27
2022-11-20T10:34:10.693Z,92.63
2022-11-20T10:37:18.033Z,92.71
2022-11-20T10:40:25.974Z,93.02
2022-11-20T10:43:25.600Z,91.07
2022-11-20T10:46:22.774Z,90.32
2022-11-20T10:48:53.261Z,89.85
2022-11-20T10:52:11.665Z,89.73
2022-11-20T10:55:33.503Z,87.49
2022-11-20T10:58:24.548Z,87.18
2022-11-20T11:01:03.869Z,87.33
2022-11-20T11:03:33.704Z,88.10
2022-11-20T11:06:24.504Z,87.58
2022-11-20T11:08:58.169Z,88.41
2022-11-20T11:11:35.577Z,88.05
2022-11-20T11:14:15.348Z,88.00
2022-11-20T11:16:58.225Z,87.86
2022-11-20T11:19:27.650Z,87.40
2022-11-20T11:21:58.492Z,87.11
2022-11-20T11:24:46.733Z,86.11
2022-11-20T11:27:19.151Z,86.39
2022-11-20T11:29:48.859Z,85.30
2022-11-20T11:32:23.216Z,86.67
2022-11-20T11:35:23.123Z,86.31
2022-11-20T11:37:56.701Z,86.65
2022-11-20T11:40:37.607Z,86.95
2022-11-20T11:43:41.534Z,87.96
2022-11-20T11:46:56.951Z,87.96
2022-11-20T11:49:25.899Z,89.02
2022-11-20T11:52:23.766Z,90.92
2022-11-20T11:55:02.552Z,90.12
2022-11-20T11:57:58.943Z,90.47
2022-11-20T12:00:28.707Z,90.92
2022-11-20T12:03:29.857Z,91.27
2022-11-20T12:06:15.983Z,90.66
2022-11-20T12:09:06.680Z,89.58
2022-11-20T12:12:11.788Z,90.25
2022-11-20T12:14:47.752Z,89.23
2022-11-20T12:17:20.254Z,88.59
2022-11-20T12:19:49.688Z,88.60
2022-11-20T12:22:53.930Z,89.87
2022-11-20T12:25:33.131Z,89.02
2022-11-20T12:29:01.014Z,88.42
2022-11-20T12:32:23.748Z,87.17
2022-11-20T12:35:36.645Z,86.37
2022-11-20T12:38:54.199Z,86.97
2022-11-20T12:42:34.436Z,86.96
2022-11-20T12:45:15.474Z,87.52
2022-11-20T12:48:18.213Z,87.96
2022-11-20T12:51:43.714Z,86.74
2022-11-20T12:54:47.663Z,86.97
2022-11-20T12:58:14.125Z,87.10
2022-11-20T13:01:48.899Z,86.98
2022-11-20T13:04:48.952Z,89.58
2022-11-20T13:07:19.828Z,88.34
2022-11-20T13:09:55.005Z,88.97
2022-11-20T13:12:43.038Z,87.54
2022-11-20T13:16:08.010Z,87.95
2022-11-20T13:18:43.785Z,89.95
2022-11-20T13:21:24.175Z,89.64
2022-11-20T13:23:53.670Z,89.26
2022-11-20T13:26:25.892Z,89.53
2022-11-20T13:29:19.600Z,88.85
2022-11-20T13:31:50.240Z,89.15
2022-11-20T13:34:29.007Z,88.81
2022-11-20T13:37:04.953Z,88.22
2022-11-20T13:39:38.592Z,89.24
2022-11-20T13:42:13.935Z,89.48
2022-11-20T13:44:55.531Z,89.46
2022-11-20T13:47:28.633Z,89.73
2022-11-20T13:50:00.449Z,90.02
2022-11-20T13:52:35.695Z,90.08
2022-11-20T13:55:27.563Z,90.98
2022-11-20T13:58:43.350Z,90.65
2022-11-20T14:01:24.436Z,91.59
2022-11-20T14:04:10.375Z,91.84
2022-11-20T14:06:48.568Z,92.88
2022-11-20T14:09:31.999Z,92.08
2022-11-20T14:12:03.252Z,91.94
2022-11-20T14:14:37.462Z,92.29
2022-11-20T14:17:34.425Z,92.13
2022-11-20T14:20:12.520Z,92.34
2022-11-20T14:22:51.753Z,92.84
2022-11-20T14:25:32.189Z,93.11
2022-11-20T14:28:04.425Z,93.79
2022-11-20T14:30:49.883Z,94.92
2022-11-20T14:33:20.895Z,93.26
2022-11-20T14:35:58.434Z,93.17
2022-11-20T14:38:33.802Z,92.51
2022-11-20T14:41:30.453Z,92.47
2022-11-20T14:44:00.874Z,92.27
2022-11-20T14:46:30.099Z,92.53
2022-11-20T14:49:03.585Z,94.07
2022-11-20T14:51:42.591Z,94.88
2022-11-20T14:54:25.144Z,97.49
2022-11-20T14:57:02.530Z,98.16
2022-11-20T14:59:35.349Z,98.49
2022-11-20T15:02:11.941Z,98.47
2022-11-20T15:05:00.372Z,97.37
2022-11-20T15:07:41.394Z,98.68
2022-11-20T15:10:32.723Z,99.24
2022-11-20T15:13:38.463Z,99.21
2022-11-20T15:16:21.788Z,97.67
2022-11-20T15:18:51.609Z,96.78
2022-11-20T15:21:23.427Z,96.42
2022-11-20T15:23:52.975Z,96.45
2022-11-20T15:26:29.777Z,95.86
2022-11-20T15:28:59.671Z,96.20
2022-11-20T15:31:29.261Z,96.65
2022-11-20T15:33:58.974Z,97.24
2022-11-20T15:36:28.515Z,97.00
2022-11-20T15:38:58.066Z,97.25
2022-11-20T15:41:28.442Z,97.15
2022-11-20T15:43:58.879Z,98.10
2022-11-20T15:46:39.446Z,98.65
2022-11-20T15:49:16.744Z,99.48
2022-11-20T15:51:51.854Z,99.48
2022-11-20T15:54:24.667Z,100.00
2022-11-20T15:56:57.530Z,100.00
2022-11-20T15:59:27.119Z,100.00
2022-11-20T16:01:54.960Z,100.00
2022-11-20T16:04:25.284Z,100.00
2022-11-20T16:06:55.185Z,100.00
2022-11-20T16:09:24.754Z,100.00
2022-11-20T16:11:55.112Z,100.00
2022-11-20T16:14:41.584Z,100.00
2022-11-20T16:17:15.740Z,100.00
2022-11-20T16:19:46.232Z,100.00
2022-11-20T16:22:14.031Z,100.00
2022-11-20T16:24:44.575Z,100.00
2022-11-20T16:27:16.477Z,100.00
2022-11-20T16:29:47.739Z,100.00
2022-11-20T16:32:16.608Z,100.00
2022-11-20T16:34:46.971Z,100.00
2022-11-20T16:37:17.582Z,100.00
2022-11-20T16:39:45.388Z,100.00
2022-11-20T16:42:13.192Z,100.00
2022-11-20T16:44:46.490Z,100.00
2022-11-20T16:47:17.773Z,100.00
2022-11-20T16:49:47.350Z,100.00
2022-11-20T16:52:17.837Z,100.00
2022-11-20T16:54:48.296Z,100.00
2022-11-20T16:57:17.867Z,100.00
2022-11-20T16:59:45.671Z,100.00
2022-11-20T17:02:16.968Z,100.00
2022-11-20T17:04:47.417Z,100.00
2022-11-20T17:07:17.060Z,100.00
2022-11-20T17:09:46.748Z,100.00
2022-11-20T17:12:16.460Z,100.00
2022-11-20T17:14:46.156Z,100.00
2022-11-20T17:17:14.022Z,100.00
2022-11-20T17:19:43.603Z,100.00
2022-11-20T17:22:11.357Z,100.00
2022-11-20T17:24:41.834Z,100.00
2022-11-20T17:27:11.682Z,100.00
2022-11-20T17:29:42.223Z,100.00
2022-11-20T17:32:12.074Z,100.00
2022-11-20T17:34:41.815Z,100.00
2022-11-20T17:37:11.461Z,100.00
2022-11-20T17:39:41.936Z,100.00
2022-11-20T17:42:30.101Z,100.00
2022-11-20T17:44:59.833Z,100.00
2022-11-20T17:47:29.436Z,100.00
2022-11-20T17:49:59.146Z,100.00
2022-11-20T17:52:28.804Z,100.00
2022-11-20T17:54:59.746Z,100.00
2022-11-20T17:57:52.231Z,100.00
2022-11-20T18:00:25.933Z,100.00
2022-11-20T18:02:56.573Z,100.00
2022-11-20T18:05:27.444Z,100.00
2022-11-20T18:07:57.177Z,100.00
2022-11-20T18:10:30.167Z,100.00
2022-11-20T18:12:59.849Z,100.00
2022-11-20T18:15:30.158Z,100.00
2022-11-20T18:17:59.784Z,100.00
2022-11-20T18:20:32.982Z,100.00
2022-11-20T18:23:03.174Z,100.00
2022-11-20T18:25:32.788Z,100.00
2022-11-20T18:28:02.403Z,100.00
2022-11-20T18:30:32.016Z,100.00
2022-11-20T18:33:01.643Z,100.00
2022-11-20T18:35:32.421Z,100.00
2022-11-20T18:38:02.930Z,100.00
2022-11-20T18:40:36.886Z,100.00
2022-11-20T18:43:25.176Z,100.00
2022-11-20T18:46:03.990Z,100.00
2022-11-20T18:48:33.668Z,100.00
2022-11-20T18:51:08.029Z,100.00
2022-11-20T18:53:44.349Z,100.00
2022-11-20T18:56:16.742Z,100.00
2022-11-20T18:58:46.368Z,100.00
2022-11-20T19:01:16.061Z,100.00
2022-11-20T19:03:47.290Z,100.00
2022-11-20T19:06:18.495Z,100.00
2022-11-20T19:08:49.304Z,100.00
2022-11-20T19:11:20.953Z,100.00
2022-11-20T19:13:51.435Z,100.00
2022-11-20T19:16:22.635Z,100.00
2022-11-20T19:18:54.177Z,100.00
2022-11-20T19:21:26.933Z,100.00
2022-11-20T19:24:01.148Z,100.00
2022-11-20T19:26:31.123Z,100.00
2022-11-20T19:29:00.048Z,100.00
2022-11-20T19:31:29.989Z,100.00
2022-11-20T19:34:04.804Z,100.00
2022-11-20T19:36:43.129Z,100.00
2022-11-20T19:39:15.545Z,100.00
2022-11-20T19:41:45.198Z,100.00
2022-11-20T19:44:19.926Z,100.00
2022-11-20T19:46:51.074Z,100.00
2022-11-20T19:49:20.930Z,100.00
2022-11-20T19:51:51.785Z,100.00
2022-11-20T19:54:19.656Z,100.00
2022-11-20T19:56:52.060Z,100.00
2022-11-20T19:59:22.949Z,100.00
2022-11-20T20:01:53.691Z,100.00
2022-11-20T20:04:24.187Z,100.00
2022-11-20T20:06:53.771Z,100.00
2022-11-20T20:09:26.739Z,100.00
2022-11-20T20:11:57.441Z,100.00
2022-11-20T20:14:27.115Z,100.00
2022-11-20T20:16:57.675Z,100.00
2022-11-20T20:19:27.481Z,100.00
2022-11-20T20:21:59.759Z,100.00
2022-11-20T20:24:31.785Z,100.00
2022-11-20T20:27:02.230Z,100.00
2022-11-20T20:29:31.521Z,100.00
2022-11-20T20:32:02.057Z,100.00
2022-11-20T20:34:32.523Z,100.00
2022-11-20T20:37:05.273Z,100.00
2022-11-20T20:39:35.870Z,100.00
2022-11-20T20:42:04.634Z,100.00
2022-11-20T20:44:53.644Z,100.00
2022-11-20T20:47:24.185Z,100.00
2022-11-20T20:49:54.624Z,100.00
2022-11-20T20:52:28.101Z,100.00
2022-11-20T20:54:58.594Z,100.00
2022-11-20T20:57:29.319Z,100.00
2022-11-20T20:59:59.024Z,100.00
2022-11-20T21:02:28.786Z,100.00
2022-11-20T21:04:59.710Z,100.00
2022-11-20T21:07:30.205Z,100.00
2022-11-20T21:09:57.983Z,100.00
2022-11-20T21:12:27.607Z,100.00
2022-11-20T21:14:57.283Z,100.00
2022-11-20T21:17:27.725Z,100.00
2022-11-20T21:19:57.246Z,100.00
2022-11-20T21:22:26.851Z,100.00
2022-11-20T21:24:56.388Z,100.00
2022-11-20T21:27:25.963Z,100.00
2022-11-20T21:29:58.259Z,100.00
2022-11-20T21:32:27.723Z,100.00
2022-11-20T21:34:57.295Z,100.00
2022-11-20T21:37:26.830Z,100.00
2022-11-20T21:39:56.345Z,100.00
2022-11-20T21:42:25.882Z,100.00
2022-11-20T21:44:55.384Z,100.00
2022-11-20T21:47:27.863Z,100.00
2022-11-20T21:49:57.332Z,100.00
2022-11-20T21:52:26.904Z,100.00
2022-11-20T21:54:56.355Z,100.00
2022-11-20T21:57:25.836Z,100.00
2022-11-20T21:59:55.330Z,100.00
2022-11-20T22:02:24.941Z,100.00
2022-11-20T22:04:54.532Z,100.00
2022-11-20T22:07:24.085Z,100.00
2022-11-20T22:09:53.671Z,100.00
2022-11-20T22:12:23.575Z,100.00
2022-11-20T22:14:53.067Z,100.00
2022-11-20T22:17:42.493Z,100.00
2022-11-20T22:20:12.200Z,100.00
2022-11-20T22:22:41.795Z,100.00
2022-11-20T22:25:11.315Z,100.00
2022-11-20T22:27:40.886Z,100.00
2022-11-20T22:30:11.285Z,100.00
2022-11-20T22:32:40.736Z,100.00
2022-11-20T22:35:10.439Z,100.00
2022-11-20T22:37:39.987Z,100.00
2022-11-20T22:40:10.565Z,100.00
2022-11-20T22:42:40.149Z,100.00
2022-11-20T22:45:11.040Z,100.00
2022-11-20T22:47:41.199Z,100.00
2022-11-20T22:50:10.836Z,100.00
2022-11-20T22:52:40.335Z,100.00
2022-11-20T22:55:15.978Z,100.00
2022-11-20T22:57:45.869Z,100.00
2022-11-20T23:00:16.409Z,100.00
2022-11-20T23:02:46.762Z,100.00
2022-11-20T23:05:16.279Z,100.00
2022-11-20T23:07:45.987Z,100.00
2022-11-20T23:10:15.639Z,100.00
2022-11-20T23:12:45.190Z,100.00
2022-11-20T23:15:14.900Z,100.00
2022-11-20T23:17:44.490Z,100.00
2022-11-20T23:20:14.211Z,100.00
2022-11-20T23:22:43.717Z,100.00
2022-11-20T23:25:13.234Z,100.00
2022-11-20T23:27:42.842Z,100.00
2022-11-20T23:30:12.990Z,100.00
2022-11-20T23:32:42.536Z,100.00
2022-11-20T23:35:12.153Z,100.00
2022-11-20T23:37:41.682Z,100.00
2022-11-20T23:40:11.871Z,100.00
2022-11-20T23:43:01.400Z,100.00
2022-11-20T23:45:31.048Z,100.00
2022-11-20T23:48:00.590Z,100.00
2022-11-20T23:50:30.154Z,100.00
2022-11-20T23:52:59.739Z,100.00
2022-11-20T23:55:29.295Z,100.00
2022-11-20T23:57:58.909Z,100.00
